Wetterdaten: aktuell Freitag, 15.11.2019 23:14
Datum Zeit Temp. A. Feuchte A. Luftdruck Regen Wind UV Solar Windben
15.11.2019 23:14 7,1 C 90 % 1003,0 hPa 0,0 l/m 6,4 km/h (2 Bft) 0,0 UV-I 0 W/m 14,5 km/h (3 Bft)
15.11.2019 22:14 7,2 C 90 % 1002,7 hPa 0,0 l/m 6,7 km/h (2 Bft) 0,0 UV-I 0 W/m 14,5 km/h (3 Bft)
15.11.2019 21:14 7,1 C 90 % 1002,7 hPa 0,0 l/m 9,5 km/h (2 Bft) 0,0 UV-I 0 W/m 19,3 km/h (3 Bft)
15.11.2019 20:14 7,4 C 89 % 1002,7 hPa 0,0 l/m 11,5 km/h (2 Bft) 0,0 UV-I 0 W/m 22,5 km/h (4 Bft)
15.11.2019 19:14 7,3 C 89 % 1003,3 hPa 0,0 l/m 6,8 km/h (2 Bft) 0,0 UV-I 0 W/m 16,1 km/h (3 Bft)
15.11.2019 18:14 7,7 C 88 % 1002,8 hPa 0,0 l/m 2,4 km/h (1 Bft) 0,0 UV-I 0 W/m 6,4 km/h (2 Bft)
15.11.2019 17:14 7,5 C 88 % 1002,6 hPa 0,0 l/m 0,0 km/h (0 Bft) 0,0 UV-I 0 W/m 0,0 km/h (0 Bft)
15.11.2019 16:14 8,5 C 86 % 1002,6 hPa 0,0 l/m 0,0 km/h (0 Bft) 0,0 UV-I 0 W/m 0,0 km/h (0 Bft)
15.11.2019 15:14 8,8 C 84 % 1001,7 hPa 0,0 l/m 5,4 km/h (1 Bft) 0,0 UV-I 44 W/m 11,3 km/h (2 Bft)
15.11.2019 14:14 9,6 C 82 % 1001,0 hPa 0,0 l/m 3,7 km/h (1 Bft) 0,0 UV-I 103 W/m 9,7 km/h (2 Bft)
15.11.2019 13:14 8,4 C 85 % 1000,6 hPa 0,0 l/m 12,6 km/h (3 Bft) 0,0 UV-I 150 W/m 22,5 km/h (4 Bft)
15.11.2019 12:14 8,1 C 85 % 1000,0 hPa 0,0 l/m 14,2 km/h (3 Bft) 0,0 UV-I 151 W/m 29,0 km/h (5 Bft)
15.11.2019 11:14 7,7 C 86 % 1000,3 hPa 0,0 l/m 9,6 km/h (2 Bft) 0,0 UV-I 204 W/m 17,7 km/h (3 Bft)
15.11.2019 10:14 7,6 C 85 % 1000,6 hPa 0,0 l/m 15,0 km/h (3 Bft) 0,0 UV-I 298 W/m 25,7 km/h (4 Bft)
15.11.2019 09:14 6,3 C 87 % 999,5 hPa 0,0 l/m 22,0 km/h (4 Bft) 0,0 UV-I 117 W/m 38,6 km/h (5 Bft)
15.11.2019 08:14 5,7 C 88 % 1001,8 hPa 0,0 l/m 9,7 km/h (2 Bft) 0,0 UV-I 17 W/m 20,9 km/h (4 Bft)
15.11.2019 07:14 5,3 C 87 % 1001,9 hPa 0,0 l/m 11,0 km/h (2 Bft) 0,0 UV-I 0 W/m 19,3 km/h (3 Bft)
15.11.2019 06:14 5,3 C 86 % 1002,2 hPa 0,0 l/m 9,8 km/h (2 Bft) 0,0 UV-I 0 W/m 19,3 km/h (3 Bft)
15.11.2019 05:14 5,1 C 86 % 1002,5 hPa 0,0 l/m 2,2 km/h (1 Bft) 0,0 UV-I 0 W/m 8,0 km/h (2 Bft)
15.11.2019 04:14 4,8 C 87 % 1003,0 hPa 0,0 l/m 5,9 km/h (2 Bft) 0,0 UV-I 0 W/m 12,9 km/h (3 Bft)
15.11.2019 03:14 4,4 C 89 % 1003,3 hPa 0,0 l/m 1,5 km/h (1 Bft) 0,0 UV-I 0 W/m 8,0 km/h (2 Bft)
15.11.2019 02:14 4,2 C 89 % 1003,5 hPa 0,0 l/m 5,3 km/h (1 Bft) 0,0 UV-I 0 W/m 12,9 km/h (3 Bft)
15.11.2019 01:14 3,8 C 88 % 1003,7 hPa 0,0 l/m 6,1 km/h (2 Bft) 0,0 UV-I 0 W/m 12,9 km/h (3 Bft)
15.11.2019 00:14 3,7 C 87 % 1004,2 hPa 0,0 l/m 5,2 km/h (1 Bft) 0,0 UV-I 0 W/m 8,0 km/h (2 Bft)
15.11.2019 00:00 3,6 C 87 % 1004,6 hPa 0,0 l/m 5,6 km/h (1 Bft) 0,0 UV-I 0 W/m 19,3 km/h (3 Bft)
_ Min-Zeit 00:00 14:04 09:06 - 16:06 - - 16:06
Minimum _ 3,6 C 82 % 999,4 hPa - 0,0 km/h (0 Bft) - - 0,0 km/h (0 Bft)
_ Max-Zeit 14:06 17:40 00:00 00:00 09:10 00:00 12:00 09:56
Maximum _ 9,6 C 90 % 1004,6 hPa 0,0 l/m 22,8 km/h
SO (4 Bft)
0,0 UV-I 347 W/m 43,5 km/h
O-SO (6 Bft)
Durchschnitt _ 6,6 C 87 % 1002,2 hPa #0,0 l/m 7,2 km/h (2 Bft) 0,0 UV-I 120 W/m 15,1 km/h (3 Bft)